SANE/SDE METAR and TAF weather

Enter ICAO airport designator
Station Type Date Time Source
SANE METAR 2020/04/01 16:35 UTC NOAA

SANE 011635Z 14002KT 4000 -DZ SCT007 BKN010 24/23 Q1011


Station Type Date Time Source
SANE Decoded METAR 2020/04/01 16:35 UTC NOAA

Santiago Del Estero Aero., Argentina (SANE) 27-46S 064-18W 199M
Apr 01, 2020 - 12:35 PM EDT / 2020.04.01 1635 UTC
Wind: from the SE (140 degrees) at 2 MPH (2 KT):0
Visibility: 2 mile(s):0
Sky conditions: mostly cloudy
Weather: light drizzle
Temperature: 75 F (24 C)
Dew Point: 73 F (23 C)
Relative Humidity: 94%
Pressure (altimeter): 29.85 in. Hg (1011 hPa)
ob: SANE 011635Z 14002KT 4000 -DZ SCT007 BKN010 24/23 Q1011
cycle: 16

Station Type Date Time Source
SANE TAF 2020/03/24 00:33 UTC NOAA

TAF TAF SANE 242300Z 2500/2524 02010KT CAVOK TX25/2519Z TN21/2510Z
BECMG 2506/2509 18010KT 9999 BKN030 FEW050TCU
TEMPO 5000 TSRA BKN020 FEW040CB

Example: see airport list